sensor_id;sensor_type;location;lat;lon;timestamp;pressure;altitude;pressure_sealevel;temperature;humidity
4024;BME280;2026;51.002;13.668;2023-05-23T00:02:59;98613.28;;;17.78;78.92
4024;BME280;2026;51.002;13.668;2023-05-23T00:08:03;98604.47;;;17.88;78.35
4024;BME280;2026;51.002;13.668;2023-05-23T00:13:06;98603.19;;;17.85;78.87
4024;BME280;2026;51.002;13.668;2023-05-23T00:18:10;98619.00;;;18.16;79.73
4024;BME280;2026;51.002;13.668;2023-05-23T00:23:14;98623.53;;;18.00;87.42
4024;BME280;2026;51.002;13.668;2023-05-23T00:28:20;98644.78;;;17.95;90.25
4024;BME280;2026;51.002;13.668;2023-05-23T00:33:23;98646.81;;;18.24;89.52
4024;BME280;2026;51.002;13.668;2023-05-23T00:38:28;98630.22;;;17.87;91.30
4024;BME280;2026;51.002;13.668;2023-05-23T00:43:31;98626.50;;;17.83;93.08
4024;BME280;2026;51.002;13.668;2023-05-23T00:48:34;98617.81;;;17.56;96.89
4024;BME280;2026;51.002;13.668;2023-05-23T00:53:41;98619.44;;;17.57;96.95
4024;BME280;2026;51.002;13.668;2023-05-23T00:58:44;98615.16;;;17.56;99.00
4024;BME280;2026;51.002;13.668;2023-05-23T01:03:48;98604.88;;;17.34;100.00
4024;BME280;2026;51.002;13.668;2023-05-23T01:08:53;98626.88;;;17.35;100.00
4024;BME280;2026;51.002;13.668;2023-05-23T01:13:59;98629.78;;;17.43;98.74
4024;BME280;2026;51.002;13.668;2023-05-23T01:19:16;98635.91;;;17.02;100.00
4024;BME280;2026;51.002;13.668;2023-05-23T01:24:35;98640.41;;;17.07;100.00
4024;BME280;2026;51.002;13.668;2023-05-23T01:29:43;98630.84;;;16.96;98.29
4024;BME280;2026;51.002;13.668;2023-05-23T01:34:47;98642.19;;;16.86;100.00
4024;BME280;2026;51.002;13.668;2023-05-23T01:39:50;98644.88;;;17.01;100.00
4024;BME280;2026;51.002;13.668;2023-05-23T01:44:56;98638.03;;;17.26;96.03
4024;BME280;2026;51.002;13.668;2023-05-23T01:50:00;98627.94;;;17.08;98.30
4024;BME280;2026;51.002;13.668;2023-05-23T01:55:06;98628.44;;;16.89;98.13
4024;BME280;2026;51.002;13.668;2023-05-23T02:00:15;98628.94;;;16.86;99.21
4024;BME280;2026;51.002;13.668;2023-05-23T02:05:20;98616.22;;;16.62;100.00
4024;BME280;2026;51.002;13.668;2023-05-23T02:10:23;98603.00;;;16.67;100.00
4024;BME280;2026;51.002;13.668;2023-05-23T02:15:28;98601.38;;;16.45;100.00
4024;BME280;2026;51.002;13.668;2023-05-23T02:20:32;98602.19;;;16.56;100.00
4024;BME280;2026;51.002;13.668;2023-05-23T02:25:35;98594.53;;;16.60;100.00
4024;BME280;2026;51.002;13.668;2023-05-23T02:30:41;98586.56;;;16.49;100.00
4024;BME280;2026;51.002;13.668;2023-05-23T02:35:45;98566.97;;;16.45;100.00
4024;BME280;2026;51.002;13.668;2023-05-23T02:40:49;98572.28;;;16.40;100.00
4024;BME280;2026;51.002;13.668;2023-05-23T02:45:55;98569.63;;;16.51;100.00
4024;BME280;2026;51.002;13.668;2023-05-23T02:50:58;98558.00;;;16.52;100.00
4024;BME280;2026;51.002;13.668;2023-05-23T02:56:01;98543.19;;;16.56;100.00
4024;BME280;2026;51.002;13.668;2023-05-23T03:01:06;98532.03;;;16.33;100.00
4024;BME280;2026;51.002;13.668;2023-05-23T03:06:10;98517.25;;;16.42;100.00
4024;BME280;2026;51.002;13.668;2023-05-23T03:11:15;98519.34;;;16.51;100.00
4024;BME280;2026;51.002;13.668;2023-05-23T03:16:20;98526.75;;;16.54;100.00
4024;BME280;2026;51.002;13.668;2023-05-23T03:21:24;98526.25;;;16.41;100.00
4024;BME280;2026;51.002;13.668;2023-05-23T03:26:27;98522.53;;;16.42;100.00
4024;BME280;2026;51.002;13.668;2023-05-23T03:31:31;98524.13;;;16.48;100.00
4024;BME280;2026;51.002;13.668;2023-05-23T03:36:34;98524.66;;;16.51;100.00
4024;BME280;2026;51.002;13.668;2023-05-23T03:41:39;98519.34;;;16.51;100.00
4024;BME280;2026;51.002;13.668;2023-05-23T03:46:44;98514.06;;;16.40;100.00
4024;BME280;2026;51.002;13.668;2023-05-23T03:51:49;98519.06;;;16.42;100.00
4024;BME280;2026;51.002;13.668;2023-05-23T03:56:52;98530.47;;;16.32;100.00
4024;BME280;2026;51.002;13.668;2023-05-23T04:01:56;98534.44;;;16.50;100.00
4024;BME280;2026;51.002;13.668;2023-05-23T04:07:00;98547.41;;;16.57;100.00
4024;BME280;2026;51.002;13.668;2023-05-23T04:12:04;98552.97;;;16.55;100.00
4024;BME280;2026;51.002;13.668;2023-05-23T04:17:11;98551.91;;;16.61;99.83
4024;BME280;2026;51.002;13.668;2023-05-23T04:22:15;98552.19;;;16.75;98.78
4024;BME280;2026;51.002;13.668;2023-05-23T04:27:20;98552.72;;;16.93;97.45
4024;BME280;2026;51.002;13.668;2023-05-23T04:32:28;98565.72;;;17.15;97.46
4024;BME280;2026;51.002;13.668;2023-05-23T04:37:31;98581.34;;;17.12;97.58
4024;BME280;2026;51.002;13.668;2023-05-23T04:42:35;98581.06;;;17.24;96.33
4024;BME280;2026;51.002;13.668;2023-05-23T04:47:59;98588.16;;;17.54;93.77
4024;BME280;2026;51.002;13.668;2023-05-23T04:53:19;98581.00;;;17.55;93.77
4024;BME280;2026;51.002;13.668;2023-05-23T04:58:22;98580.72;;;17.56;94.94
4024;BME280;2026;51.002;13.668;2023-05-23T05:03:31;98580.66;;;17.72;94.51
4024;BME280;2026;51.002;13.668;2023-05-23T05:08:34;98584.69;;;17.69;94.65
4024;BME280;2026;51.002;13.668;2023-05-23T05:13:38;98587.28;;;17.75;95.12
4024;BME280;2026;51.002;13.668;2023-05-23T05:18:43;98585.34;;;18.11;94.79
4024;BME280;2026;51.002;13.668;2023-05-23T05:23:47;98588.53;;;19.77;86.64
4024;BME280;2026;51.002;13.668;2023-05-23T05:28:51;98591.47;;;19.51;88.68
4024;BME280;2026;51.002;13.668;2023-05-23T05:33:57;98597.84;;;19.26;90.95
4024;BME280;2026;51.002;13.668;2023-05-23T05:39:01;98595.97;;;18.91;92.51
4024;BME280;2026;51.002;13.668;2023-05-23T05:44:04;98603.63;;;18.58;93.09
4024;BME280;2026;51.002;13.668;2023-05-23T05:49:09;98599.31;;;18.27;95.48
4024;BME280;2026;51.002;13.668;2023-05-23T05:54:13;98600.53;;;18.46;96.03
4024;BME280;2026;51.002;13.668;2023-05-23T05:59:19;98604.38;;;18.24;96.32
4024;BME280;2026;51.002;13.668;2023-05-23T06:04:24;98616.72;;;18.49;95.70
4024;BME280;2026;51.002;13.668;2023-05-23T06:09:28;98614.88;;;18.45;95.41
4024;BME280;2026;51.002;13.668;2023-05-23T06:14:31;98620.28;;;18.29;96.10
4024;BME280;2026;51.002;13.668;2023-05-23T06:19:37;98625.56;;;18.29;96.04
4024;BME280;2026;51.002;13.668;2023-05-23T06:24:40;98628.31;;;18.13;96.52
4024;BME280;2026;51.002;13.668;2023-05-23T06:29:43;98627.72;;;18.22;97.07
4024;BME280;2026;51.002;13.668;2023-05-23T06:34:49;98625.75;;;18.48;95.38
4024;BME280;2026;51.002;13.668;2023-05-23T06:39:52;98637.22;;;18.33;95.26
4024;BME280;2026;51.002;13.668;2023-05-23T06:44:55;98641.66;;;18.48;93.49
4024;BME280;2026;51.002;13.668;2023-05-23T06:50:00;98651.03;;;18.30;93.75
4024;BME280;2026;51.002;13.668;2023-05-23T06:55:06;98650.97;;;18.40;93.40
4024;BME280;2026;51.002;13.668;2023-05-23T07:00:10;98649.22;;;18.76;91.60
4024;BME280;2026;51.002;13.668;2023-05-23T07:05:26;98651.47;;;19.33;89.69
4024;BME280;2026;51.002;13.668;2023-05-23T07:10:31;98642.06;;;19.95;84.72
4024;BME280;2026;51.002;13.668;2023-05-23T07:15:46;98647.94;;;19.43;85.88
4024;BME280;2026;51.002;13.668;2023-05-23T07:20:50;98652.41;;;19.47;85.53
4024;BME280;2026;51.002;13.668;2023-05-23T07:25:55;98649.38;;;19.30;85.35
4024;BME280;2026;51.002;13.668;2023-05-23T07:31:30;98649.28;;;19.40;84.58
4024;BME280;2026;51.002;13.668;2023-05-23T07:36:35;98650.50;;;19.48;83.69
4024;BME280;2026;51.002;13.668;2023-05-23T07:41:41;98657.25;;;19.05;85.92
4024;BME280;2026;51.002;13.668;2023-05-23T07:46:44;98647.31;;;19.51;83.90
4024;BME280;2026;51.002;13.668;2023-05-23T07:51:49;98656.75;;;19.62;83.96
4024;BME280;2026;51.002;13.668;2023-05-23T07:56:53;98654.69;;;20.32;80.52
4024;BME280;2026;51.002;13.668;2023-05-23T08:01:57;98663.56;;;20.85;79.11
4024;BME280;2026;51.002;13.668;2023-05-23T08:07:02;98662.47;;;22.00;74.84
4024;BME280;2026;51.002;13.668;2023-05-23T08:12:30;98656.31;;;22.28;75.06
4024;BME280;2026;51.002;13.668;2023-05-23T08:17:43;98677.69;;;21.38;76.55
4024;BME280;2026;51.002;13.668;2023-05-23T08:22:47;98670.38;;;20.92;77.65
4024;BME280;2026;51.002;13.668;2023-05-23T08:27:50;98677.25;;;20.98;77.75
4024;BME280;2026;51.002;13.668;2023-05-23T08:33:10;98682.72;;;20.87;78.80
4024;BME280;2026;51.002;13.668;2023-05-23T08:38:18;98680.25;;;20.34;81.12
4024;BME280;2026;51.002;13.668;2023-05-23T08:43:36;98690.59;;;19.57;84.16
4024;BME280;2026;51.002;13.668;2023-05-23T08:48:42;98698.16;;;19.44;84.30
4024;BME280;2026;51.002;13.668;2023-05-23T08:53:47;98707.97;;;19.14;85.43
4024;BME280;2026;51.002;13.668;2023-05-23T08:58:57;98706.78;;;19.31;84.94
4024;BME280;2026;51.002;13.668;2023-05-23T09:04:01;98716.41;;;19.21;84.75
4024;BME280;2026;51.002;13.668;2023-05-23T09:09:25;98708.38;;;19.61;84.46
4024;BME280;2026;51.002;13.668;2023-05-23T09:14:29;98717.19;;;19.57;84.60
4024;BME280;2026;51.002;13.668;2023-05-23T09:19:40;98714.63;;;19.76;84.40
4024;BME280;2026;51.002;13.668;2023-05-23T09:25:14;98709.63;;;19.69;83.75
4024;BME280;2026;51.002;13.668;2023-05-23T09:30:19;98718.13;;;19.71;85.13
4024;BME280;2026;51.002;13.668;2023-05-23T09:35:22;98728.94;;;19.50;85.81
4024;BME280;2026;51.002;13.668;2023-05-23T09:40:30;98740.13;;;19.47;85.87
4024;BME280;2026;51.002;13.668;2023-05-23T09:45:37;98740.75;;;19.34;86.07
4024;BME280;2026;51.002;13.668;2023-05-23T09:50:39;98751.75;;;19.22;86.51
4024;BME280;2026;51.002;13.668;2023-05-23T09:55:44;98752.25;;;17.61;93.18
4024;BME280;2026;51.002;13.668;2023-05-23T10:00:49;98749.63;;;18.63;86.71
4024;BME280;2026;51.002;13.668;2023-05-23T10:05:56;98755.34;;;18.91;82.62
4024;BME280;2026;51.002;13.668;2023-05-23T10:17:06;98762.63;;;18.70;81.22
4024;BME280;2026;51.002;13.668;2023-05-23T10:22:11;98760.47;;;19.28;77.40
4024;BME280;2026;51.002;13.668;2023-05-23T10:27:15;98761.47;;;18.16;80.68
4024;BME280;2026;51.002;13.668;2023-05-23T10:32:19;98773.84;;;19.17;80.46
4024;BME280;2026;51.002;13.668;2023-05-23T10:37:28;98775.13;;;19.25;80.42
4024;BME280;2026;51.002;13.668;2023-05-23T10:42:41;98781.63;;;18.93;80.82
4024;BME280;2026;51.002;13.668;2023-05-23T10:47:49;98779.53;;;18.90;81.02
4024;BME280;2026;51.002;13.668;2023-05-23T10:52:53;98788.31;;;18.85;82.19
4024;BME280;2026;51.002;13.668;2023-05-23T10:58:09;98790.91;;;18.95;81.79
4024;BME280;2026;51.002;13.668;2023-05-23T11:03:15;98782.56;;;19.23;79.69
4024;BME280;2026;51.002;13.668;2023-05-23T11:08:19;98787.59;;;19.99;77.38
4024;BME280;2026;51.002;13.668;2023-05-23T11:13:23;98789.00;;;20.45;74.49
4024;BME280;2026;51.002;13.668;2023-05-23T11:18:28;98792.28;;;20.37;72.54
4024;BME280;2026;51.002;13.668;2023-05-23T11:23:39;98798.66;;;20.60;71.01
4024;BME280;2026;51.002;13.668;2023-05-23T11:28:54;98792.56;;;20.11;73.31
4024;BME280;2026;51.002;13.668;2023-05-23T11:33:59;98787.97;;;20.17;73.25
4024;BME280;2026;51.002;13.668;2023-05-23T11:39:03;98784.22;;;20.18;72.14
4024;BME280;2026;51.002;13.668;2023-05-23T11:44:12;98785.69;;;20.05;73.63
4024;BME280;2026;51.002;13.668;2023-05-23T11:49:16;98789.44;;;20.04;72.56
4024;BME280;2026;51.002;13.668;2023-05-23T11:54:21;98792.88;;;20.04;72.79
4024;BME280;2026;51.002;13.668;2023-05-23T11:59:25;98788.09;;;20.31;71.05
4024;BME280;2026;51.002;13.668;2023-05-23T12:04:30;98784.41;;;20.51;70.78
4024;BME280;2026;51.002;13.668;2023-05-23T12:09:41;98783.81;;;21.22;68.93
4024;BME280;2026;51.002;13.668;2023-05-23T12:14:44;98777.63;;;20.40;72.38
4024;BME280;2026;51.002;13.668;2023-05-23T12:19:48;98780.38;;;20.54;72.23
4024;BME280;2026;51.002;13.668;2023-05-23T12:24:52;98774.59;;;20.71;71.95
4024;BME280;2026;51.002;13.668;2023-05-23T12:30:06;98783.84;;;20.98;69.79
4024;BME280;2026;51.002;13.668;2023-05-23T12:35:13;98778.34;;;20.45;69.78
4024;BME280;2026;51.002;13.668;2023-05-23T12:40:17;98778.44;;;20.59;70.83
4024;BME280;2026;51.002;13.668;2023-05-23T12:45:22;98793.59;;;20.83;70.06
4024;BME280;2026;51.002;13.668;2023-05-23T12:50:27;98789.84;;;20.41;72.56
4024;BME280;2026;51.002;13.668;2023-05-23T12:55:30;98791.56;;;20.75;72.35
4024;BME280;2026;51.002;13.668;2023-05-23T13:00:33;98805.97;;;20.25;72.07
4024;BME280;2026;51.002;13.668;2023-05-23T13:05:38;98803.63;;;19.89;73.13
4024;BME280;2026;51.002;13.668;2023-05-23T13:10:41;98799.13;;;19.49;75.14
4024;BME280;2026;51.002;13.668;2023-05-23T13:15:44;98809.50;;;19.06;77.16
4024;BME280;2026;51.002;13.668;2023-05-23T13:20:52;98813.09;;;18.65;79.29
4024;BME280;2026;51.002;13.668;2023-05-23T13:25:56;98815.75;;;18.70;81.03
4024;BME280;2026;51.002;13.668;2023-05-23T13:30:59;98811.22;;;18.65;82.09
4024;BME280;2026;51.002;13.668;2023-05-23T13:36:06;98819.81;;;18.26;85.98
4024;BME280;2026;51.002;13.668;2023-05-23T13:41:09;98834.19;;;18.04;87.90
4024;BME280;2026;51.002;13.668;2023-05-23T13:46:12;98836.84;;;18.04;87.61
4024;BME280;2026;51.002;13.668;2023-05-23T13:51:16;98849.81;;;17.80;88.57
4024;BME280;2026;51.002;13.668;2023-05-23T13:56:19;98846.03;;;17.50;91.87
4024;BME280;2026;51.002;13.668;2023-05-23T14:01:22;98842.88;;;17.58;90.97
4024;BME280;2026;51.002;13.668;2023-05-23T14:06:27;98850.06;;;17.94;89.63
4024;BME280;2026;51.002;13.668;2023-05-23T14:11:30;98850.63;;;18.01;89.42
4024;BME280;2026;51.002;13.668;2023-05-23T14:16:33;98859.66;;;18.21;88.98
4024;BME280;2026;51.002;13.668;2023-05-23T14:21:37;98852.16;;;17.55;90.96
4024;BME280;2026;51.002;13.668;2023-05-23T14:26:45;98854.56;;;17.83;89.17
4024;BME280;2026;51.002;13.668;2023-05-23T14:31:48;98853.59;;;17.10;90.89
4024;BME280;2026;51.002;13.668;2023-05-23T14:36:52;98865.66;;;16.80;95.11
4024;BME280;2026;51.002;13.668;2023-05-23T14:41:56;98872.56;;;16.86;96.74
4024;BME280;2026;51.002;13.668;2023-05-23T14:46:59;98867.34;;;17.01;96.50
4024;BME280;2026;51.002;13.668;2023-05-23T14:52:03;98872.97;;;17.10;92.64
4024;BME280;2026;51.002;13.668;2023-05-23T14:57:06;98877.25;;;17.22;90.61
4024;BME280;2026;51.002;13.668;2023-05-23T15:02:09;98881.78;;;17.26;92.70
4024;BME280;2026;51.002;13.668;2023-05-23T15:07:14;98880.66;;;17.17;90.34
4024;BME280;2026;51.002;13.668;2023-05-23T15:12:18;98879.84;;;17.06;91.81
4024;BME280;2026;51.002;13.668;2023-05-23T15:17:22;98886.50;;;17.24;90.97
4024;BME280;2026;51.002;13.668;2023-05-23T15:22:28;98883.00;;;16.60;92.50
4024;BME280;2026;51.002;13.668;2023-05-23T15:27:40;98888.38;;;16.32;93.50
4024;BME280;2026;51.002;13.668;2023-05-23T15:32:43;98899.44;;;15.69;96.17
4024;BME280;2026;51.002;13.668;2023-05-23T15:37:48;98884.91;;;16.27;92.46
4024;BME280;2026;51.002;13.668;2023-05-23T15:42:51;98894.97;;;16.30;91.91
4024;BME280;2026;51.002;13.668;2023-05-23T15:47:54;98900.09;;;15.54;93.98
4024;BME280;2026;51.002;13.668;2023-05-23T15:52:59;98899.47;;;15.97;92.04
4024;BME280;2026;51.002;13.668;2023-05-23T15:58:02;98900.50;;;15.68;93.71
4024;BME280;2026;51.002;13.668;2023-05-23T16:03:05;98897.50;;;15.59;93.96
4024;BME280;2026;51.002;13.668;2023-05-23T16:08:09;98906.00;;;15.61;94.13
4024;BME280;2026;51.002;13.668;2023-05-23T16:13:12;98918.53;;;15.49;94.39
4024;BME280;2026;51.002;13.668;2023-05-23T16:18:18;98915.41;;;15.07;98.89
4024;BME280;2026;51.002;13.668;2023-05-23T16:23:25;98913.31;;;15.32;97.33
4024;BME280;2026;51.002;13.668;2023-05-23T16:28:28;98911.91;;;15.24;98.49
4024;BME280;2026;51.002;13.668;2023-05-23T16:33:31;98909.69;;;15.16;98.64
4024;BME280;2026;51.002;13.668;2023-05-23T16:38:36;98909.06;;;15.08;98.40
4024;BME280;2026;51.002;13.668;2023-05-23T16:43:39;98910.66;;;14.70;100.00
4024;BME280;2026;51.002;13.668;2023-05-23T16:48:42;98911.09;;;14.62;100.00
4024;BME280;2026;51.002;13.668;2023-05-23T16:53:46;98918.19;;;14.78;100.00
4024;BME280;2026;51.002;13.668;2023-05-23T16:58:49;98915.22;;;14.40;100.00
4024;BME280;2026;51.002;13.668;2023-05-23T17:03:52;98923.81;;;14.01;100.00
4024;BME280;2026;51.002;13.668;2023-05-23T17:08:59;98925.53;;;14.25;100.00
4024;BME280;2026;51.002;13.668;2023-05-23T17:14:02;98933.28;;;14.32;100.00
4024;BME280;2026;51.002;13.668;2023-05-23T17:19:05;98939.28;;;14.27;100.00
4024;BME280;2026;51.002;13.668;2023-05-23T17:24:09;98955.81;;;13.93;100.00
4024;BME280;2026;51.002;13.668;2023-05-23T17:29:12;98947.44;;;13.67;100.00
4024;BME280;2026;51.002;13.668;2023-05-23T17:34:17;98956.97;;;13.85;100.00
4024;BME280;2026;51.002;13.668;2023-05-23T17:39:22;99004.81;;;13.65;100.00
4024;BME280;2026;51.002;13.668;2023-05-23T17:44:25;98981.75;;;13.43;100.00
4024;BME280;2026;51.002;13.668;2023-05-23T17:49:28;98985.63;;;13.53;100.00
4024;BME280;2026;51.002;13.668;2023-05-23T17:54:32;98989.78;;;13.13;100.00
4024;BME280;2026;51.002;13.668;2023-05-23T17:59:35;98997.13;;;13.23;100.00
4024;BME280;2026;51.002;13.668;2023-05-23T18:04:40;98991.72;;;13.17;100.00
4024;BME280;2026;51.002;13.668;2023-05-23T18:09:44;99002.38;;;13.11;100.00
4024;BME280;2026;51.002;13.668;2023-05-23T18:14:48;99009.03;;;12.59;100.00
4024;BME280;2026;51.002;13.668;2023-05-23T18:19:52;99010.44;;;12.61;100.00
4024;BME280;2026;51.002;13.668;2023-05-23T18:24:57;99014.25;;;12.89;100.00
4024;BME280;2026;51.002;13.668;2023-05-23T18:30:00;99026.81;;;12.87;100.00
4024;BME280;2026;51.002;13.668;2023-05-23T18:35:04;99032.41;;;12.79;100.00
4024;BME280;2026;51.002;13.668;2023-05-23T18:40:10;99045.50;;;12.55;100.00
4024;BME280;2026;51.002;13.668;2023-05-23T18:45:13;99053.34;;;12.74;100.00
4024;BME280;2026;51.002;13.668;2023-05-23T18:50:17;99067.72;;;12.59;100.00
4024;BME280;2026;51.002;13.668;2023-05-23T18:55:22;99061.44;;;12.30;100.00
4024;BME280;2026;51.002;13.668;2023-05-23T19:00:25;99071.72;;;12.01;100.00
4024;BME280;2026;51.002;13.668;2023-05-23T19:05:28;99096.88;;;12.08;100.00
4024;BME280;2026;51.002;13.668;2023-05-23T19:10:32;99098.78;;;12.20;100.00
4024;BME280;2026;51.002;13.668;2023-05-23T19:15:35;99107.16;;;12.10;100.00
4024;BME280;2026;51.002;13.668;2023-05-23T19:20:39;99111.63;;;12.09;100.00
4024;BME280;2026;51.002;13.668;2023-05-23T19:25:43;99118.78;;;12.02;100.00
4024;BME280;2026;51.002;13.668;2023-05-23T19:30:47;99141.53;;;12.08;100.00
4024;BME280;2026;51.002;13.668;2023-05-23T19:35:50;99154.75;;;12.20;100.00
4024;BME280;2026;51.002;13.668;2023-05-23T19:40:54;99149.59;;;12.14;100.00
4024;BME280;2026;51.002;13.668;2023-05-23T19:45:57;99155.78;;;12.19;100.00
4024;BME280;2026;51.002;13.668;2023-05-23T19:51:00;99164.91;;;12.35;100.00
4024;BME280;2026;51.002;13.668;2023-05-23T19:56:05;99173.81;;;12.16;100.00
4024;BME280;2026;51.002;13.668;2023-05-23T20:01:08;99190.56;;;12.21;100.00
4024;BME280;2026;51.002;13.668;2023-05-23T20:06:12;99190.41;;;12.16;100.00
4024;BME280;2026;51.002;13.668;2023-05-23T20:11:16;99203.19;;;12.13;100.00
4024;BME280;2026;51.002;13.668;2023-05-23T20:16:19;99205.31;;;12.22;100.00
4024;BME280;2026;51.002;13.668;2023-05-23T20:21:22;99210.31;;;12.05;100.00
4024;BME280;2026;51.002;13.668;2023-05-23T20:26:27;99204.63;;;12.08;100.00
4024;BME280;2026;51.002;13.668;2023-05-23T20:31:30;99215.47;;;12.19;100.00
4024;BME280;2026;51.002;13.668;2023-05-23T20:36:33;99225.81;;;12.32;100.00
4024;BME280;2026;51.002;13.668;2023-05-23T20:41:37;99218.59;;;12.28;100.00
4024;BME280;2026;51.002;13.668;2023-05-23T20:46:42;99226.72;;;12.26;100.00
4024;BME280;2026;51.002;13.668;2023-05-23T20:51:45;99227.00;;;12.36;100.00
4024;BME280;2026;51.002;13.668;2023-05-23T20:56:50;99232.19;;;12.24;100.00
4024;BME280;2026;51.002;13.668;2023-05-23T21:01:54;99233.16;;;12.05;100.00
4024;BME280;2026;51.002;13.668;2023-05-23T21:06:57;99241.97;;;11.92;100.00
4024;BME280;2026;51.002;13.668;2023-05-23T21:12:03;99246.09;;;12.06;100.00
4024;BME280;2026;51.002;13.668;2023-05-23T21:17:06;99239.75;;;12.14;100.00
4024;BME280;2026;51.002;13.668;2023-05-23T21:22:10;99240.84;;;12.06;100.00
4024;BME280;2026;51.002;13.668;2023-05-23T21:27:14;99239.75;;;12.14;100.00
4024;BME280;2026;51.002;13.668;2023-05-23T21:32:17;99237.88;;;12.21;99.99
4024;BME280;2026;51.002;13.668;2023-05-23T21:37:20;99238.22;;;12.06;100.00
4024;BME280;2026;51.002;13.668;2023-05-23T21:42:25;99255.22;;;12.04;99.82
4024;BME280;2026;51.002;13.668;2023-05-23T21:47:27;99249.91;;;11.85;100.00
4024;BME280;2026;51.002;13.668;2023-05-23T21:52:30;99253.34;;;11.86;100.00
4024;BME280;2026;51.002;13.668;2023-05-23T21:57:35;99255.59;;;11.82;100.00
4024;BME280;2026;51.002;13.668;2023-05-23T22:02:38;99244.94;;;11.77;100.00
4024;BME280;2026;51.002;13.668;2023-05-23T22:07:41;99256.56;;;11.88;100.00
4024;BME280;2026;51.002;13.668;2023-05-23T22:12:45;99251.53;;;11.86;99.92
4024;BME280;2026;51.002;13.668;2023-05-23T22:17:48;99262.41;;;11.90;99.98
4024;BME280;2026;51.002;13.668;2023-05-23T22:22:53;99258.09;;;11.70;100.00
4024;BME280;2026;51.002;13.668;2023-05-23T22:27:57;99258.84;;;11.77;99.76
4024;BME280;2026;51.002;13.668;2023-05-23T22:33:01;99259.03;;;11.82;100.00
4024;BME280;2026;51.002;13.668;2023-05-23T22:38:13;99267.84;;;11.95;99.87
4024;BME280;2026;51.002;13.668;2023-05-23T22:43:17;99265.84;;;11.90;99.40
4024;BME280;2026;51.002;13.668;2023-05-23T22:48:22;99266.47;;;11.86;98.65
4024;BME280;2026;51.002;13.668;2023-05-23T22:53:26;99254.16;;;11.86;98.58
4024;BME280;2026;51.002;13.668;2023-05-23T22:58:30;99251.69;;;11.91;96.52
4024;BME280;2026;51.002;13.668;2023-05-23T23:03:33;99244.56;;;11.73;97.06
4024;BME280;2026;51.002;13.668;2023-05-23T23:08:37;99243.31;;;11.50;96.35
4024;BME280;2026;51.002;13.668;2023-05-23T23:13:41;99236.84;;;11.46;96.11
4024;BME280;2026;51.002;13.668;2023-05-23T23:18:44;99230.22;;;11.37;96.93
4024;BME280;2026;51.002;13.668;2023-05-23T23:23:47;99230.03;;;11.06;96.82
4024;BME280;2026;51.002;13.668;2023-05-23T23:28:52;99226.56;;;11.12;95.03
4024;BME280;2026;51.002;13.668;2023-05-23T23:33:55;99237.25;;;11.11;93.66
4024;BME280;2026;51.002;13.668;2023-05-23T23:38:58;99244.28;;;11.17;92.78
4024;BME280;2026;51.002;13.668;2023-05-23T23:44:02;99243.22;;;11.25;91.51
4024;BME280;2026;51.002;13.668;2023-05-23T23:49:05;99245.66;;;11.20;90.18
4024;BME280;2026;51.002;13.668;2023-05-23T23:54:08;99249.28;;;11.25;89.32
4024;BME280;2026;51.002;13.668;2023-05-23T23:59:12;99263.69;;;11.09;89.67
